Time;durP1;ratioP1;P1;durP2;ratioP2;P2;SDS_P1;SDS_P2;PMS_P1;PMS_P2;Temp;Humidity;BMP_temperature;BMP_pressure;BME280_temperature;BME280_humidity;BME280_pressure;Samples;Min_cycle;Max_cycle;Signal;HPM_P1;HPM_P2
2023/07/17 00:00:58;;;;;;;;;;;;;;;18.40;47.83;100873.65;105317;1288;61385;-82
2023/07/17 00:03:44;;;;;;;;;;;;;;;18.37;47.83;100874.84;105278;1286;75988;-82
2023/07/17 00:06:30;;;;;;;;;;;;;;;18.34;47.77;100870.40;105246;1287;69942;-82
2023/07/17 00:09:16;;;;;;;;;;;;;;;18.31;47.97;100874.23;105212;1288;76146;-82
2023/07/17 00:12:03;;;;;;;;;;;;;;;18.25;48.04;100873.06;105328;1285;61295;-82
2023/07/17 00:14:49;;;;;;;;;;;;;;;18.24;48.16;100871.75;105339;1287;61225;-82
2023/07/17 00:17:35;;;;;;;;;;;;;;;18.23;48.15;100870.74;105311;1285;75949;-82
2023/07/17 00:20:23;;;;;;;;;;;;;;;18.18;48.30;100868.84;105219;1285;68215;-82
2023/07/17 00:23:09;;;;;;;;;;;;;;;18.13;48.28;100870.30;105365;1285;73141;-82
2023/07/17 00:25:55;;;;;;;;;;;;;;;18.11;48.29;100870.39;105331;1286;61183;-82
2023/07/17 00:28:41;;;;;;;;;;;;;;;18.05;48.48;100873.08;105212;1288;61168;-82
2023/07/17 00:31:27;;;;;;;;;;;;;;;18.02;48.53;100875.83;105233;1289;73212;-82
2023/07/17 00:34:13;;;;;;;;;;;;;;;18.01;48.57;100872.05;105378;1287;67259;-82
2023/07/17 00:36:59;;;;;;;;;;;;;;;17.94;48.67;100871.83;105393;1285;73983;-82
2023/07/17 00:39:45;;;;;;;;;;;;;;;17.84;48.77;100871.73;105239;1288;59637;-82
2023/07/17 00:42:31;;;;;;;;;;;;;;;17.79;48.94;100875.39;105340;1285;59250;-82
2023/07/17 00:45:17;;;;;;;;;;;;;;;17.77;48.89;100873.41;105278;1286;73242;-82
2023/07/17 00:48:03;;;;;;;;;;;;;;;17.75;48.99;100874.00;105301;1285;67186;-82
2023/07/17 00:50:51;;;;;;;;;;;;;;;17.73;49.09;100876.02;105240;1288;71439;-82
2023/07/17 00:53:37;;;;;;;;;;;;;;;17.71;49.08;100870.34;105330;1286;61211;-82
2023/07/17 00:56:24;;;;;;;;;;;;;;;17.69;49.16;100863.48;105383;1290;61142;-82
2023/07/17 00:59:10;;;;;;;;;;;;;;;17.60;49.21;100857.02;105411;1288;73710;-82
2023/07/17 01:01:57;;;;;;;;;;;;;;;17.58;49.45;100859.02;105317;1286;67964;-82
2023/07/17 01:04:45;;;;;;;;;;;;;;;17.57;49.43;100855.77;105234;1288;73265;-82
2023/07/17 01:07:31;;;;;;;;;;;;;;;17.54;49.45;100855.17;105234;1286;61277;-82
2023/07/17 01:10:17;;;;;;;;;;;;;;;17.52;49.55;100859.09;105375;1286;61114;-82
2023/07/17 01:13:04;;;;;;;;;;;;;;;17.52;49.47;100859.80;105366;1285;75961;-82
2023/07/17 01:15:50;;;;;;;;;;;;;;;17.50;49.56;100854.28;105284;1288;68139;-82
2023/07/17 01:18:36;;;;;;;;;;;;;;;17.49;49.48;100851.02;105399;1286;72095;-82
2023/07/17 01:21:27;;;;;;;;;;;;;;;17.44;49.63;100850.17;105383;1286;61213;-82
2023/07/17 01:24:13;;;;;;;;;;;;;;;17.43;49.62;100849.89;105367;1286;61331;-82
2023/07/17 01:26:59;;;;;;;;;;;;;;;17.41;49.71;100851.69;105427;1286;73111;-82
2023/07/17 01:29:45;;;;;;;;;;;;;;;17.37;49.70;100850.45;105251;1285;68466;-82
2023/07/17 01:32:31;;;;;;;;;;;;;;;17.30;49.79;100851.63;105369;1286;71089;-82
2023/07/17 01:35:17;;;;;;;;;;;;;;;17.23;49.97;100847.20;105384;1286;61118;-82
2023/07/17 01:38:03;;;;;;;;;;;;;;;17.22;50.05;100850.71;105430;1288;61237;-82
2023/07/17 01:40:49;;;;;;;;;;;;;;;17.19;50.03;100852.38;105369;1291;74019;-82
2023/07/17 01:43:35;;;;;;;;;;;;;;;17.18;50.05;100855.03;105351;1288;67324;-82
2023/07/17 01:46:22;;;;;;;;;;;;;;;17.17;50.12;100856.81;105337;1286;72379;-82
2023/07/17 01:49:08;;;;;;;;;;;;;;;17.12;50.20;100858.44;105379;1285;61324;-82
2023/07/17 01:51:54;;;;;;;;;;;;;;;17.08;50.26;100862.95;105434;1287;61241;-82
2023/07/17 01:54:40;;;;;;;;;;;;;;;17.09;50.24;100858.92;105241;1287;74189;-82
2023/07/17 01:57:26;;;;;;;;;;;;;;;17.09;50.26;100858.23;105405;1286;69136;-82
2023/07/17 02:00:12;;;;;;;;;;;;;;;17.08;50.41;100862.45;105322;1285;72381;-82
2023/07/17 02:02:58;;;;;;;;;;;;;;;17.08;50.40;100861.92;105367;1286;61254;-82
2023/07/17 02:05:44;;;;;;;;;;;;;;;17.07;50.55;100868.05;105380;1286;60856;-82
2023/07/17 02:08:30;;;;;;;;;;;;;;;17.00;50.63;100869.36;105281;1289;75065;-82
2023/07/17 02:11:16;;;;;;;;;;;;;;;16.99;50.62;100871.67;105321;1290;67150;-82
2023/07/17 02:14:02;;;;;;;;;;;;;;;16.98;50.68;100871.36;105312;1286;71065;-82
2023/07/17 02:16:48;;;;;;;;;;;;;;;16.93;50.78;100878.72;105176;1288;62230;-82
2023/07/17 02:19:34;;;;;;;;;;;;;;;16.91;50.80;100886.60;105143;1288;61369;-82
2023/07/17 02:22:20;;;;;;;;;;;;;;;16.89;50.70;100892.44;105316;1288;76006;-82
2023/07/17 02:25:07;;;;;;;;;;;;;;;16.83;50.85;100898.90;105384;1285;68538;-82
2023/07/17 02:27:53;;;;;;;;;;;;;;;16.79;50.95;100905.52;106610;1285;70473;-82
2023/07/17 02:30:39;;;;;;;;;;;;;;;16.73;51.17;100901.55;105725;1289;61119;-82
2023/07/17 02:33:26;;;;;;;;;;;;;;;16.73;51.35;100899.81;105382;1285;61213;-82
2023/07/17 02:36:12;;;;;;;;;;;;;;;16.77;51.34;100898.29;105268;1285;74346;-82
2023/07/17 02:38:58;;;;;;;;;;;;;;;16.83;51.29;100900.84;105346;1288;67172;-82
2023/07/17 02:41:44;;;;;;;;;;;;;;;16.83;51.31;100903.11;105313;1286;71331;-82
2023/07/17 02:44:30;;;;;;;;;;;;;;;16.77;51.44;100904.88;105369;1286;61263;-82
2023/07/17 02:47:17;;;;;;;;;;;;;;;16.80;51.52;100903.56;105353;1285;61129;-82
2023/07/17 02:50:07;;;;;;;;;;;;;;;16.81;51.54;100912.39;105305;1285;77302;-82
2023/07/17 02:52:53;;;;;;;;;;;;;;;16.79;51.60;100913.87;105345;1286;67304;-82
2023/07/17 02:55:39;;;;;;;;;;;;;;;16.71;51.66;100915.20;105333;1285;73332;-82
2023/07/17 02:58:25;;;;;;;;;;;;;;;16.72;51.84;100916.39;105272;1288;61150;-82
2023/07/17 03:01:11;;;;;;;;;;;;;;;16.79;51.90;100915.63;105433;1286;59588;-82
2023/07/17 03:03:58;;;;;;;;;;;;;;;16.85;51.95;100906.34;105287;1287;73521;-82
2023/07/17 03:06:44;;;;;;;;;;;;;;;16.87;52.01;100911.15;105261;1288;67123;-82
2023/07/17 03:09:30;;;;;;;;;;;;;;;16.91;51.97;100916.23;105402;1285;72426;-82
2023/07/17 03:12:16;;;;;;;;;;;;;;;16.95;52.10;100919.23;105305;1285;59373;-82
2023/07/17 03:15:06;;;;;;;;;;;;;;;17.04;52.09;100925.84;105329;1285;59614;-82
2023/07/17 03:17:52;;;;;;;;;;;;;;;17.11;52.21;100925.39;105229;1288;73530;-82
2023/07/17 03:20:42;;;;;;;;;;;;;;;17.17;52.23;100929.83;105374;1285;68376;-82
2023/07/17 03:23:28;;;;;;;;;;;;;;;17.18;52.32;100926.30;105320;1288;72578;-82
2023/07/17 03:26:14;;;;;;;;;;;;;;;17.18;52.23;100924.39;105383;1291;61036;-82
2023/07/17 03:29:00;;;;;;;;;;;;;;;17.21;52.35;100924.11;105390;1288;61478;-82
2023/07/17 03:31:46;;;;;;;;;;;;;;;17.21;52.47;100927.06;105213;1287;73236;-82
2023/07/17 03:34:32;;;;;;;;;;;;;;;17.21;52.49;100926.70;105385;1288;67180;-82
2023/07/17 03:37:19;;;;;;;;;;;;;;;17.28;52.58;100929.24;105168;1286;72884;-82
2023/07/17 03:40:05;;;;;;;;;;;;;;;17.37;52.57;100934.30;105231;1286;61504;-82
2023/07/17 03:42:51;;;;;;;;;;;;;;;17.43;52.57;100930.54;105260;1287;61257;-82
2023/07/17 03:45:37;;;;;;;;;;;;;;;17.50;52.64;100927.86;105179;1289;73222;-82
2023/07/17 03:48:23;;;;;;;;;;;;;;;17.54;52.71;100931.68;105320;1288;67299;-82
2023/07/17 03:51:09;;;;;;;;;;;;;;;17.61;52.87;100928.98;105365;1288;71057;-82
2023/07/17 03:53:55;;;;;;;;;;;;;;;17.66;52.88;100921.98;105356;1287;62793;-82
2023/07/17 03:56:41;;;;;;;;;;;;;;;17.73;52.90;100922.73;105199;1288;61160;-82
2023/07/17 03:59:45;;;;;;;;;;;;;;;17.79;52.95;100923.02;105094;1287;73352;-82
2023/07/17 04:02:31;;;;;;;;;;;;;;;17.85;52.99;100925.75;105292;1288;67311;-82
2023/07/17 04:05:17;;;;;;;;;;;;;;;17.95;53.18;100924.48;105282;1288;71060;-82
2023/07/17 04:08:03;;;;;;;;;;;;;;;18.00;53.18;100926.53;105315;1287;60918;-82
2023/07/17 04:10:49;;;;;;;;;;;;;;;18.07;53.30;100924.63;105395;1288;61407;-82
2023/07/17 04:13:35;;;;;;;;;;;;;;;18.17;53.10;100922.84;105224;1288;75954;-82
2023/07/17 04:16:25;;;;;;;;;;;;;;;18.26;53.25;100924.53;105344;1288;67355;-82
2023/07/17 04:19:11;;;;;;;;;;;;;;;18.32;53.38;100921.80;105379;1288;71300;-82
2023/07/17 04:21:57;;;;;;;;;;;;;;;18.39;53.34;100910.84;105349;1289;59388;-82
2023/07/17 04:24:43;;;;;;;;;;;;;;;18.49;53.20;100905.33;105235;1288;59734;-82
2023/07/17 04:27:30;;;;;;;;;;;;;;;18.57;53.15;100903.79;105249;1288;73434;-82
2023/07/17 04:30:16;;;;;;;;;;;;;;;18.60;53.21;100896.67;105193;1288;67974;-82
2023/07/17 04:33:04;;;;;;;;;;;;;;;18.70;53.21;100892.20;105360;1288;71051;-82
2023/07/17 04:35:50;;;;;;;;;;;;;;;18.78;53.21;100889.90;105348;1288;61278;-82
2023/07/17 04:38:36;;;;;;;;;;;;;;;18.83;53.15;100891.78;105362;1290;63464;-82
2023/07/17 04:41:22;;;;;;;;;;;;;;;18.83;53.23;100884.95;105324;1287;72523;-82
2023/07/17 04:44:08;;;;;;;;;;;;;;;18.88;53.26;100886.34;105281;1288;72102;-82
2023/07/17 04:46:54;;;;;;;;;;;;;;;18.93;53.26;100883.82;105257;1288;73243;-82
2023/07/17 04:49:40;;;;;;;;;;;;;;;18.99;53.31;100884.92;105380;1286;61266;-82
2023/07/17 04:52:26;;;;;;;;;;;;;;;19.05;53.25;100885.02;105235;1287;61182;-82
2023/07/17 04:55:12;;;;;;;;;;;;;;;19.09;53.15;100888.80;105411;1287;74605;-82
2023/07/17 04:57:59;;;;;;;;;;;;;;;19.17;53.09;100891.42;105327;1289;68058;-82
2023/07/17 05:00:46;;;;;;;;;;;;;;;19.21;53.11;100883.38;105338;1288;73969;-83
2023/07/17 05:03:33;;;;;;;;;;;;;;;19.29;53.11;100887.69;105365;1288;61913;-82
2023/07/17 05:06:19;;;;;;;;;;;;;;;19.35;53.12;100889.64;105353;1287;61337;-82
2023/07/17 05:09:05;;;;;;;;;;;;;;;19.41;53.18;100887.10;105343;1286;73086;-82
2023/07/17 05:11:51;;;;;;;;;;;;;;;19.52;53.21;100884.84;105269;1287;69744;-83
2023/07/17 05:14:37;;;;;;;;;;;;;;;19.71;53.32;100887.41;105410;1286;72362;-82
2023/07/17 05:17:23;;;;;;;;;;;;;;;20.09;53.26;100893.02;105297;1288;59452;-82
2023/07/17 05:20:09;;;;;;;;;;;;;;;20.73;53.40;100892.60;105414;1287;61136;-83
2023/07/17 05:22:55;;;;;;;;;;;;;;;21.38;52.98;100887.27;105289;1288;73597;-83
2023/07/17 05:25:50;;;;;;;;;;;;;;;21.72;52.84;100885.25;105377;1286;67243;-83
2023/07/17 05:28:37;;;;;;;;;;;;;;;22.15;52.65;100881.36;105362;1287;75945;-83
2023/07/17 05:31:23;;;;;;;;;;;;;;;22.82;52.56;100882.32;105323;1288;59532;-83
2023/07/17 05:34:09;;;;;;;;;;;;;;;23.53;52.21;100887.36;105283;1288;61276;-83
2023/07/17 05:36:55;;;;;;;;;;;;;;;24.21;51.96;100894.10;105399;1286;76005;-83
2023/07/17 05:39:41;;;;;;;;;;;;;;;24.53;51.55;100892.23;105384;1286;67382;-83
2023/07/17 05:42:27;;;;;;;;;;;;;;;24.82;51.50;100890.50;105495;1289;72067;-83
2023/07/17 05:45:13;;;;;;;;;;;;;;;25.22;51.35;100892.70;105283;1291;59941;-83
2023/07/17 05:48:00;;;;;;;;;;;;;;;25.91;51.13;100896.59;105431;1289;61285;-83
2023/07/17 05:50:46;;;;;;;;;;;;;;;26.67;50.64;100894.02;105500;1287;73828;-83
2023/07/17 05:53:32;;;;;;;;;;;;;;;27.04;50.02;100895.89;105387;1287;67724;-83
2023/07/17 05:56:18;;;;;;;;;;;;;;;27.08;49.88;100898.55;105292;1289;74029;-83
2023/07/17 05:59:04;;;;;;;;;;;;;;;27.17;49.72;100898.19;105304;1287;61256;-83
2023/07/17 06:01:50;;;;;;;;;;;;;;;27.25;49.41;100895.71;105312;1286;61134;-83
2023/07/17 06:04:36;;;;;;;;;;;;;;;27.40;49.27;100894.73;105332;1286;73229;-83
2023/07/17 06:07:22;;;;;;;;;;;;;;;27.72;49.01;100893.79;105477;1285;68051;-83
2023/07/17 06:10:09;;;;;;;;;;;;;;;28.14;48.87;100895.56;105390;1285;73100;-83
2023/07/17 06:12:55;;;;;;;;;;;;;;;28.63;48.47;100901.45;105395;1288;61082;-83
2023/07/17 06:15:41;;;;;;;;;;;;;;;29.20;48.01;100905.94;105332;1291;61372;-83
2023/07/17 06:18:27;;;;;;;;;;;;;;;29.68;47.63;100905.14;105426;1286;76046;-83
2023/07/17 06:21:13;;;;;;;;;;;;;;;29.68;47.10;100899.58;105384;1286;68117;-83
2023/07/17 06:23:59;;;;;;;;;;;;;;;29.52;47.11;100901.46;105295;1288;72176;-83
2023/07/17 06:26:45;;;;;;;;;;;;;;;29.96;47.13;100903.21;105274;1286;61228;-83
2023/07/17 06:29:32;;;;;;;;;;;;;;;30.56;46.48;100896.15;105306;1288;61217;-83
2023/07/17 06:32:18;;;;;;;;;;;;;;;31.13;45.95;100892.31;105381;1287;77201;-83
2023/07/17 06:35:07;;;;;;;;;;;;;;;31.74;45.79;100888.36;105414;1285;67387;-83
2023/07/17 06:37:53;;;;;;;;;;;;;;;32.33;45.52;100888.77;105393;1290;74019;-83
2023/07/17 06:40:40;;;;;;;;;;;;;;;33.08;44.94;100886.67;105242;1285;59714;-84
2023/07/17 06:43:26;;;;;;;;;;;;;;;33.89;44.69;100890.17;105245;1286;61183;-84
2023/07/17 06:46:12;;;;;;;;;;;;;;;34.56;44.16;100888.39;105412;1286;74571;-84
2023/07/17 06:48:58;;;;;;;;;;;;;;;35.28;44.06;100888.88;105341;1286;67305;-83
2023/07/17 06:51:44;;;;;;;;;;;;;;;34.95;43.53;100890.97;105269;1287;73360;-84
2023/07/17 06:54:30;;;;;;;;;;;;;;;34.17;43.43;100893.20;105457;1286;61028;-83
2023/07/17 06:57:16;;;;;;;;;;;;;;;33.56;42.96;100891.89;105367;1289;59329;-84
2023/07/17 07:00:05;;;;;;;;;;;;;;;33.47;42.89;100890.23;105452;1286;73263;-84
2023/07/17 07:02:51;;;;;;;;;;;;;;;34.40;42.22;100886.14;105374;1287;66725;-84
2023/07/17 07:05:40;;;;;;;;;;;;;;;35.07;41.40;100886.44;105192;1286;308274;-84
2023/07/17 07:08:28;;;;;;;;;;;;;;;35.22;41.18;100882.61;105452;1286;61272;-84
2023/07/17 07:11:14;;;;;;;;;;;;;;;36.06;40.47;100883.27;105306;1286;61466;-84
2023/07/17 07:14:00;;;;;;;;;;;;;;;36.12;39.89;100885.56;105441;1289;73132;-84
2023/07/17 07:16:46;;;;;;;;;;;;;;;36.33;39.84;100885.50;105407;1286;67183;-84
2023/07/17 07:19:32;;;;;;;;;;;;;;;37.25;39.42;100882.06;105398;1286;71148;-84
2023/07/17 07:22:18;;;;;;;;;;;;;;;38.33;38.64;100883.36;105425;1289;60919;-85
2023/07/17 07:25:04;;;;;;;;;;;;;;;39.00;38.75;100881.84;105294;1289;60607;-84
2023/07/17 07:27:50;;;;;;;;;;;;;;;39.35;38.49;100881.88;105397;1291;73188;-84
2023/07/17 07:30:36;;;;;;;;;;;;;;;40.11;37.95;100882.11;105445;1287;68569;-83
2023/07/17 07:33:23;;;;;;;;;;;;;;;40.61;37.13;100882.80;105339;1286;71246;-83
2023/07/17 07:36:09;;;;;;;;;;;;;;;40.10;37.26;100876.65;105247;1289;61605;-83
2023/07/17 07:38:55;;;;;;;;;;;;;;;39.88;37.15;100879.27;105273;1288;61165;-83
2023/07/17 07:41:41;;;;;;;;;;;;;;;40.35;36.09;100873.02;105507;1289;77405;-83
2023/07/17 07:44:27;;;;;;;;;;;;;;;39.62;35.91;100878.23;105339;1289;68246;-84
2023/07/17 07:47:13;;;;;;;;;;;;;;;39.05;35.68;100878.44;105392;1290;71534;-83
2023/07/17 07:50:00;;;;;;;;;;;;;;;38.63;35.27;100872.46;105385;1286;61334;-83
2023/07/17 07:52:46;;;;;;;;;;;;;;;39.83;34.50;100879.58;106590;1286;59473;-83
2023/07/17 07:55:32;;;;;;;;;;;;;;;41.24;33.18;100876.75;105933;1286;74602;-83
2023/07/17 07:58:18;;;;;;;;;;;;;;;42.81;32.79;100876.67;105406;1287;68348;-83
2023/07/17 08:01:04;;;;;;;;;;;;;;;43.97;32.10;100878.98;105344;1291;75389;-83
2023/07/17 08:03:50;;;;;;;;;;;;;;;44.80;31.49;100875.60;105325;1291;61292;-83
2023/07/17 08:06:36;;;;;;;;;;;;;;;45.34;30.77;100874.17;105310;1286;59309;-84
2023/07/17 08:09:22;;;;;;;;;;;;;;;45.80;29.97;100874.48;105251;1288;73414;-84
2023/07/17 08:12:09;;;;;;;;;;;;;;;46.28;30.26;100864.95;105332;1288;61320;-84
2023/07/17 08:14:55;;;;;;;;;;;;;;;46.60;29.10;100859.41;105362;1291;71363;-85
2023/07/17 08:17:41;;;;;;;;;;;;;;;46.36;28.88;100858.35;105381;1290;59436;-84
2023/07/17 08:20:27;;;;;;;;;;;;;;;46.50;28.58;100856.82;105300;1286;61164;-84
2023/07/17 08:23:13;;;;;;;;;;;;;;;46.41;28.39;100859.23;105423;1286;66292;-84
2023/07/17 08:25:59;;;;;;;;;;;;;;;45.80;27.97;100860.36;105360;1286;61290;-83
2023/07/17 08:28:46;;;;;;;;;;;;;;;44.91;27.49;100857.36;105375;1287;74006;-84
2023/07/17 08:31:32;;;;;;;;;;;;;;;44.63;27.34;100854.91;105358;1289;59618;-84
2023/07/17 08:34:20;;;;;;;;;;;;;;;44.33;26.78;100857.04;105339;1286;61874;-83
2023/07/17 08:37:06;;;;;;;;;;;;;;;43.89;26.36;100853.65;105340;1286;74520;-83
2023/07/17 08:39:52;;;;;;;;;;;;;;;43.65;26.19;100852.51;105247;1286;68469;-83
2023/07/17 08:42:43;;;;;;;;;;;;;;;43.31;25.86;100853.35;105219;1292;73009;-84
2023/07/17 08:45:31;;;;;;;;;;;;;;;42.53;25.26;100846.30;105434;1287;59038;-84
2023/07/17 08:48:17;;;;;;;;;;;;;;;42.02;25.46;100845.69;105427;1291;61196;-83
2023/07/17 08:51:04;;;;;;;;;;;;;;;41.74;24.97;100852.35;105416;1287;77293;-83
2023/07/17 08:53:52;;;;;;;;;;;;;;;41.77;24.53;100849.14;105425;1287;67356;-83
2023/07/17 08:56:39;;;;;;;;;;;;;;;40.81;24.32;100843.38;105366;1286;71735;-83
2023/07/17 08:59:25;;;;;;;;;;;;;;;40.10;24.58;100848.48;105433;1286;62568;-83
2023/07/17 09:02:11;;;;;;;;;;;;;;;39.88;24.06;100852.02;105457;1286;61099;-83
2023/07/17 09:04:57;;;;;;;;;;;;;;;39.23;23.91;100848.48;105485;1286;79259;-83
2023/07/17 09:07:43;;;;;;;;;;;;;;;38.38;24.16;100850.09;105365;1286;67237;-83
2023/07/17 09:10:29;;;;;;;;;;;;;;;37.54;24.09;100859.62;105362;1291;72841;-83
2023/07/17 09:13:16;;;;;;;;;;;;;;;36.61;24.02;100854.42;105418;1290;59299;-83
2023/07/17 09:16:17;;;;;;;;;;;;;;;35.81;24.06;100849.60;105434;1287;61036;-83
2023/07/17 09:19:03;;;;;;;;;;;;;;;35.29;23.97;100849.13;105430;1286;73399;-83
2023/07/17 09:21:49;;;;;;;;;;;;;;;34.85;23.98;100849.33;105317;1286;67814;-83
2023/07/17 09:24:36;;;;;;;;;;;;;;;34.44;23.92;100855.06;105426;1288;74143;-84
2023/07/17 09:27:22;;;;;;;;;;;;;;;33.98;23.90;100855.45;106224;1286;59967;-84
2023/07/17 09:30:09;;;;;;;;;;;;;;;33.52;24.07;100853.73;106404;1286;59003;-85
2023/07/17 09:33:03;;;;;;;;;;;;;;;33.08;24.10;100846.39;106299;1286;73393;-84
2023/07/17 09:35:53;;;;;;;;;;;;;;;32.62;24.04;100851.46;106222;1285;69168;-85
2023/07/17 09:38:38;;;;;;;;;;;;;;;32.23;24.14;100847.80;106416;1287;71214;-85
2023/07/17 09:41:26;;;;;;;;;;;;;;;32.01;24.33;100843.31;106189;1286;59141;-84
2023/07/17 09:44:16;;;;;;;;;;;;;;;31.93;24.56;100843.07;105502;1286;59373;-88
2023/07/17 09:47:00;;;;;;;;;;;;;;;31.93;24.36;100837.25;105454;1287;73262;-85
2023/07/17 09:49:45;;;;;;;;;;;;;;;31.82;24.43;100839.24;105495;1286;68965;-86
2023/07/17 09:52:31;;;;;;;;;;;;;;;31.75;24.46;100838.69;105088;1286;570850;-85
2023/07/17 09:55:15;;;;;;;;;;;;;;;31.57;24.59;100834.80;105519;1288;61299;-85
2023/07/17 09:58:03;;;;;;;;;;;;;;;31.48;24.73;100833.09;105515;1287;61193;-85
2023/07/17 10:00:48;;;;;;;;;;;;;;;31.44;24.79;100831.66;105446;1288;73164;-85
2023/07/17 10:03:32;;;;;;;;;;;;;;;31.41;24.86;100830.63;105524;1288;68327;-85
2023/07/17 10:06:18;;;;;;;;;;;;;;;31.34;24.96;100840.25;105542;1286;72700;-86
2023/07/17 10:09:05;;;;;;;;;;;;;;;31.24;24.96;100834.38;105510;1286;61234;-85
2023/07/17 10:11:50;;;;;;;;;;;;;;;31.20;25.04;100825.80;105576;1286;59617;-85
2023/07/17 10:14:34;;;;;;;;;;;;;;;31.14;25.23;100829.53;105562;1287;76972;-87
2023/07/17 10:17:38;;;;;;;;;;;;;;;31.07;25.32;100839.38;105492;1292;68433;-85
2023/07/17 10:20:23;;;;;;;;;;;;;;;30.90;25.25;100832.94;105506;1288;71181;-85
2023/07/17 10:23:22;;;;;;;;;;;;;;;30.65;25.27;100832.66;105458;1286;61221;-85
2023/07/17 10:26:11;;;;;;;;;;;;;;;30.47;25.50;100823.80;105514;1286;59233;-85
2023/07/17 10:28:55;;;;;;;;;;;;;;;30.35;25.65;100824.52;105576;1290;73291;-85
2023/07/17 10:31:47;;;;;;;;;;;;;;;30.31;25.76;100826.46;105630;1289;66874;-85
2023/07/17 10:34:48;;;;;;;;;;;;;;;30.25;25.63;100821.38;105528;1286;73118;-84
2023/07/17 10:37:33;;;;;;;;;;;;;;;30.23;25.81;100810.11;105582;1286;59593;-85
2023/07/17 10:40:29;;;;;;;;;;;;;;;30.22;25.90;100815.55;105573;1288;61118;-84
2023/07/17 10:43:18;;;;;;;;;;;;;;;30.22;25.91;100819.28;105528;1286;73384;-85
2023/07/17 10:46:08;;;;;;;;;;;;;;;30.16;26.09;100820.23;105496;1288;67257;-84
2023/07/17 10:49:08;;;;;;;;;;;;;;;30.10;26.10;100807.02;105496;1288;71247;-84
2023/07/17 10:51:55;;;;;;;;;;;;;;;30.00;26.18;100811.14;105546;1286;61186;-86
2023/07/17 10:54:41;;;;;;;;;;;;;;;29.88;26.14;100807.48;105591;1287;61234;-86
2023/07/17 10:57:28;;;;;;;;;;;;;;;29.76;26.12;100808.58;105514;1287;80225;-87
2023/07/17 11:00:14;;;;;;;;;;;;;;;29.72;26.34;100808.10;105535;1287;67867;-86
2023/07/17 11:03:01;;;;;;;;;;;;;;;29.66;26.25;100804.69;105535;1289;71441;-86
2023/07/17 11:05:47;;;;;;;;;;;;;;;29.56;26.24;100800.52;105543;1287;61184;-87
2023/07/17 11:08:33;;;;;;;;;;;;;;;29.46;26.43;100803.23;105521;1286;61269;-87
2023/07/17 11:11:19;;;;;;;;;;;;;;;29.42;26.60;100803.20;105398;1288;73376;-86
2023/07/17 11:14:05;;;;;;;;;;;;;;;29.48;26.50;100802.13;105547;1291;73274;-86
2023/07/17 11:16:54;;;;;;;;;;;;;;;29.51;26.41;100794.61;105383;1288;73997;-86
2023/07/17 11:19:40;;;;;;;;;;;;;;;29.50;26.52;100789.40;105545;1287;59590;-87
2023/07/17 11:22:30;;;;;;;;;;;;;;;29.47;26.50;100797.59;105540;1286;61208;-87
2023/07/17 11:25:16;;;;;;;;;;;;;;;29.41;26.50;100797.86;105558;1288;76027;-86
2023/07/17 11:28:02;;;;;;;;;;;;;;;29.29;26.31;100800.11;105645;1286;70050;-86
2023/07/17 11:30:48;;;;;;;;;;;;;;;29.25;26.57;100802.30;105596;1291;71386;-86
2023/07/17 11:33:32;;;;;;;;;;;;;;;29.22;26.48;100805.59;105407;1287;59707;-86
2023/07/17 11:36:17;;;;;;;;;;;;;;;29.19;26.46;100801.13;105540;1290;61055;-84
2023/07/17 11:39:10;;;;;;;;;;;;;;;29.15;26.57;100797.70;105537;1286;73235;-84
2023/07/17 11:41:55;;;;;;;;;;;;;;;29.17;26.49;100793.97;105593;1291;67291;-84
2023/07/17 11:44:38;;;;;;;;;;;;;;;29.16;26.49;100795.80;105541;1286;72547;-84
2023/07/17 11:47:22;;;;;;;;;;;;;;;29.16;26.51;100793.05;105547;1286;59242;-85
2023/07/17 11:50:07;;;;;;;;;;;;;;;29.19;26.48;100789.55;105512;1286;59582;-84
2023/07/17 11:53:03;;;;;;;;;;;;;;;29.17;26.46;100789.15;105523;1286;73148;-84
2023/07/17 11:55:50;;;;;;;;;;;;;;;29.15;26.47;100788.33;105495;1286;70032;-84
2023/07/17 11:58:36;;;;;;;;;;;;;;;29.10;26.46;100796.63;105474;1286;71215;-84
2023/07/17 12:01:22;;;;;;;;;;;;;;;29.07;26.49;100789.09;105374;1288;61207;-84
2023/07/17 12:04:14;;;;;;;;;;;;;;;29.09;26.42;100783.02;105557;1286;61135;-85
2023/07/17 12:07:01;;;;;;;;;;;;;;;29.13;26.53;100779.84;105375;1286;73844;-81
2023/07/17 12:09:49;;;;;;;;;;;;;;;29.17;26.57;100785.48;105473;1287;67111;-81
2023/07/17 12:12:33;;;;;;;;;;;;;;;29.17;26.49;100782.65;105543;1290;74095;-82
2023/07/17 12:15:17;;;;;;;;;;;;;;;29.12;26.60;100781.80;105541;1286;60102;-81
2023/07/17 12:18:01;;;;;;;;;;;;;;;29.14;26.59;100776.51;105594;1286;61653;-82
2023/07/17 12:20:46;;;;;;;;;;;;;;;29.16;26.66;100782.34;105625;1286;74498;-81
2023/07/17 12:23:30;;;;;;;;;;;;;;;29.15;26.53;100771.94;105557;1287;67477;-81
2023/07/17 12:26:14;;;;;;;;;;;;;;;29.12;26.57;100760.33;105561;1286;71183;-84
2023/07/17 12:28:58;;;;;;;;;;;;;;;29.12;26.67;100771.05;105581;1286;59313;-84
2023/07/17 12:31:42;;;;;;;;;;;;;;;29.12;26.46;100765.56;105540;1286;59181;-84
2023/07/17 12:34:27;;;;;;;;;;;;;;;29.12;26.61;100758.94;105547;1286;74016;-84
2023/07/17 12:37:11;;;;;;;;;;;;;;;29.11;26.61;100758.29;105518;1288;70020;-81
2023/07/17 12:39:59;;;;;;;;;;;;;;;29.08;26.62;100762.02;105571;1291;71251;-81
2023/07/17 12:42:42;;;;;;;;;;;;;;;29.07;26.73;100765.66;105441;1288;61045;-83
2023/07/17 12:45:26;;;;;;;;;;;;;;;29.05;26.71;100766.52;105548;1287;61273;-83
2023/07/17 12:48:11;;;;;;;;;;;;;;;29.06;26.67;100753.86;105575;1286;73469;-83
2023/07/17 12:50:55;;;;;;;;;;;;;;;29.08;26.74;100748.00;105538;1291;68755;-84
2023/07/17 12:53:39;;;;;;;;;;;;;;;29.11;26.83;100761.23;105502;1288;71371;-83
2023/07/17 12:56:23;;;;;;;;;;;;;;;29.12;26.75;100751.17;105567;1286;61331;-84
2023/07/17 12:59:07;;;;;;;;;;;;;;;29.04;26.75;100756.69;105491;1286;59798;-83
2023/07/17 13:01:51;;;;;;;;;;;;;;;28.95;26.72;100758.17;105510;1286;73182;-83
2023/07/17 13:04:35;;;;;;;;;;;;;;;28.95;26.77;100756.83;105385;1289;68144;-84
2023/07/17 13:07:21;;;;;;;;;;;;;;;28.98;26.78;100760.41;105464;1286;71645;-83
2023/07/17 13:10:08;;;;;;;;;;;;;;;29.02;26.72;100759.89;105524;1286;60987;-83
2023/07/17 13:12:53;;;;;;;;;;;;;;;28.98;26.78;100759.83;105249;1286;61240;-84
2023/07/17 13:15:40;;;;;;;;;;;;;;;29.00;26.81;100760.59;104942;1286;77370;-83
2023/07/17 13:18:26;;;;;;;;;;;;;;;28.99;26.73;100759.91;105520;1286;71367;-83
2023/07/17 13:21:12;;;;;;;;;;;;;;;29.00;26.68;100760.77;105575;1286;75254;-83
2023/07/17 13:24:00;;;;;;;;;;;;;;;29.04;26.64;100764.98;105606;1286;61148;-86
2023/07/17 13:26:46;;;;;;;;;;;;;;;29.05;26.66;100758.35;105267;1286;61327;-86
2023/07/17 13:29:33;;;;;;;;;;;;;;;29.09;26.70;100766.70;105079;1286;73180;-83
2023/07/17 13:32:19;;;;;;;;;;;;;;;29.12;26.61;100759.08;105585;1289;68551;-83
2023/07/17 13:35:05;;;;;;;;;;;;;;;29.15;26.77;100772.44;105555;1286;71207;-83
2023/07/17 13:37:51;;;;;;;;;;;;;;;29.20;26.64;100770.81;105421;1286;61160;-81
2023/07/17 13:40:37;;;;;;;;;;;;;;;29.20;26.64;100779.29;105491;1290;61151;-82
2023/07/17 13:43:23;;;;;;;;;;;;;;;29.16;26.54;100781.83;105507;1286;73239;-82
2023/07/17 13:46:09;;;;;;;;;;;;;;;29.11;26.48;100784.07;105434;1286;68203;-82
2023/07/17 13:48:55;;;;;;;;;;;;;;;29.10;26.54;100777.61;105443;1286;74023;-82
2023/07/17 13:51:42;;;;;;;;;;;;;;;29.07;26.60;100780.20;105438;1286;61046;-82
2023/07/17 13:54:29;;;;;;;;;;;;;;;29.04;26.52;100780.71;105437;1288;62398;-82
2023/07/17 13:57:15;;;;;;;;;;;;;;;29.02;26.54;100779.11;105492;1286;73936;-82
2023/07/17 14:00:05;;;;;;;;;;;;;;;29.03;26.49;100769.55;105619;1290;68816;-86
2023/07/17 14:02:51;;;;;;;;;;;;;;;29.02;26.54;100770.59;105628;1286;72005;-83